sensor_id;sensor_type;location;lat;lon;timestamp;pressure;altitude;pressure_sealevel;temperature;humidity
29215;BME280;16252;49.816;7.964;2022-10-15T00:02:16;99101.16;;;16.62;79.15
29215;BME280;16252;49.816;7.964;2022-10-15T00:04:41;99194.81;;;17.24;79.18
29215;BME280;16252;49.816;7.964;2022-10-15T00:07:06;99177.00;;;17.15;79.22
29215;BME280;16252;49.816;7.964;2022-10-15T00:09:32;99093.41;;;16.59;79.25
29215;BME280;16252;49.816;7.964;2022-10-15T00:11:57;99024.47;;;16.17;79.15
29215;BME280;16252;49.816;7.964;2022-10-15T00:14:22;99084.66;;;16.57;79.34
29215;BME280;16252;49.816;7.964;2022-10-15T00:16:48;99138.56;;;16.81;79.33
29215;BME280;16252;49.816;7.964;2022-10-15T00:19:14;99145.19;;;16.94;79.33
29215;BME280;16252;49.816;7.964;2022-10-15T00:21:39;99161.56;;;17.00;79.24
29215;BME280;16252;49.816;7.964;2022-10-15T00:24:05;99081.28;;;16.55;79.23
29215;BME280;16252;49.816;7.964;2022-10-15T00:26:30;99198.69;;;17.29;79.31
29215;BME280;16252;49.816;7.964;2022-10-15T00:29:00;99193.75;;;17.33;79.52
29215;BME280;16252;49.816;7.964;2022-10-15T00:31:28;99193.28;;;17.29;79.46
29215;BME280;16252;49.816;7.964;2022-10-15T00:33:56;99187.53;;;17.32;79.76
29215;BME280;16252;49.816;7.964;2022-10-15T00:36:24;99195.63;;;17.32;79.68
29215;BME280;16252;49.816;7.964;2022-10-15T00:38:50;99193.94;;;17.31;79.71
29215;BME280;16252;49.816;7.964;2022-10-15T00:41:24;99197.97;;;17.36;79.81
29215;BME280;16252;49.816;7.964;2022-10-15T00:43:54;99200.38;;;17.30;79.81
29215;BME280;16252;49.816;7.964;2022-10-15T00:46:37;99203.00;;;17.39;79.76
29215;BME280;16252;49.816;7.964;2022-10-15T00:49:16;99166.88;;;17.17;79.57
29215;BME280;16252;49.816;7.964;2022-10-15T00:51:47;99177.25;;;17.28;79.71
29215;BME280;16252;49.816;7.964;2022-10-15T00:54:13;99166.00;;;17.16;79.41
29215;BME280;16252;49.816;7.964;2022-10-15T00:56:41;99152.91;;;17.05;79.23
29215;BME280;16252;49.816;7.964;2022-10-15T00:59:08;99199.00;;;17.35;79.40
29215;BME280;16252;49.816;7.964;2022-10-15T01:01:35;99204.41;;;17.35;79.62
29215;BME280;16252;49.816;7.964;2022-10-15T01:04:01;99212.31;;;17.36;79.71
29215;BME280;16252;49.816;7.964;2022-10-15T01:06:27;99199.63;;;17.37;79.73
29215;BME280;16252;49.816;7.964;2022-10-15T01:08:52;99160.28;;;17.11;79.34
29215;BME280;16252;49.816;7.964;2022-10-15T01:11:47;99202.31;;;17.45;79.34
29215;BME280;16252;49.816;7.964;2022-10-15T01:17:00;99158.09;;;17.15;79.13
29215;BME280;16252;49.816;7.964;2022-10-15T01:22:15;99150.22;;;17.05;79.34
29215;BME280;16252;49.816;7.964;2022-10-15T01:28:15;99216.91;;;17.36;79.51
29215;BME280;16252;49.816;7.964;2022-10-15T01:30:46;99219.28;;;17.30;79.43
29215;BME280;16252;49.816;7.964;2022-10-15T01:36:28;99202.53;;;17.35;79.42
29215;BME280;16252;49.816;7.964;2022-10-15T01:38:55;99180.13;;;17.26;79.53
29215;BME280;16252;49.816;7.964;2022-10-15T01:41:39;99192.41;;;17.37;79.46
29215;BME280;16252;49.816;7.964;2022-10-15T01:44:33;99193.03;;;17.39;79.80
29215;BME280;16252;49.816;7.964;2022-10-15T01:47:03;99182.78;;;17.35;80.02
29215;BME280;16252;49.816;7.964;2022-10-15T01:49:35;99187.16;;;17.36;79.84
29215;BME280;16252;49.816;7.964;2022-10-15T01:52:08;99169.19;;;17.20;79.56
29215;BME280;16252;49.816;7.964;2022-10-15T01:54:35;99175.13;;;17.15;79.64
29215;BME280;16252;49.816;7.964;2022-10-15T01:57:01;99172.38;;;17.23;79.70
29215;BME280;16252;49.816;7.964;2022-10-15T01:59:30;99177.25;;;17.28;79.71
29215;BME280;16252;49.816;7.964;2022-10-15T02:01:56;99140.47;;;17.19;80.02
29215;BME280;16252;49.816;7.964;2022-10-15T02:04:26;99165.88;;;17.32;79.95
29215;BME280;16252;49.816;7.964;2022-10-15T02:07:14;99164.69;;;17.35;79.43
29215;BME280;16252;49.816;7.964;2022-10-15T02:10:05;99173.09;;;17.40;79.51
29215;BME280;16252;49.816;7.964;2022-10-15T02:13:01;99184.28;;;17.37;79.71
29215;BME280;16252;49.816;7.964;2022-10-15T02:15:45;99177.16;;;17.36;79.55
29215;BME280;16252;49.816;7.964;2022-10-15T02:18:18;99185.19;;;17.29;79.65
29215;BME280;16252;49.816;7.964;2022-10-15T02:20:58;99170.25;;;17.33;79.77
29215;BME280;16252;49.816;7.964;2022-10-15T02:23:35;99179.03;;;17.36;79.50
29215;BME280;16252;49.816;7.964;2022-10-15T02:26:06;99154.34;;;17.16;79.90
29215;BME280;16252;49.816;7.964;2022-10-15T02:28:33;99109.31;;;16.85;79.81
29215;BME280;16252;49.816;7.964;2022-10-15T02:31:01;99172.38;;;17.23;80.02
29215;BME280;16252;49.816;7.964;2022-10-15T02:33:28;99170.88;;;17.21;80.02
29215;BME280;16252;49.816;7.964;2022-10-15T02:35:56;99177.97;;;17.22;79.89
29215;BME280;16252;49.816;7.964;2022-10-15T02:38:24;99183.19;;;17.23;80.07
29215;BME280;16252;49.816;7.964;2022-10-15T02:40:51;99189.31;;;17.17;80.03
29215;BME280;16252;49.816;7.964;2022-10-15T02:43:18;99199.91;;;17.27;79.96
29215;BME280;16252;49.816;7.964;2022-10-15T02:45:44;99131.44;;;16.80;79.78
29215;BME280;16252;49.816;7.964;2022-10-15T02:48:10;99154.81;;;16.96;79.87
29215;BME280;16252;49.816;7.964;2022-10-15T02:50:35;99178.53;;;17.09;79.88
29215;BME280;16252;49.816;7.964;2022-10-15T02:53:00;99175.19;;;17.07;80.15
29215;BME280;16252;49.816;7.964;2022-10-15T02:55:26;99150.81;;;16.92;80.18
29215;BME280;16252;49.816;7.964;2022-10-15T02:57:51;99150.59;;;16.94;80.17
29215;BME280;16252;49.816;7.964;2022-10-15T03:00:17;99185.28;;;17.13;80.02
29215;BME280;16252;49.816;7.964;2022-10-15T03:02:43;99191.66;;;17.20;80.24
29215;BME280;16252;49.816;7.964;2022-10-15T03:05:08;99188.81;;;17.14;80.13
29215;BME280;16252;49.816;7.964;2022-10-15T03:07:34;99164.56;;;17.05;80.26
29215;BME280;16252;49.816;7.964;2022-10-15T03:09:59;99183.25;;;17.15;80.26
29215;BME280;16252;49.816;7.964;2022-10-15T03:12:25;99136.03;;;16.80;80.13
29215;BME280;16252;49.816;7.964;2022-10-15T03:14:51;99167.13;;;16.99;80.01
29215;BME280;16252;49.816;7.964;2022-10-15T03:17:16;99177.28;;;16.97;79.94
29215;BME280;16252;49.816;7.964;2022-10-15T03:19:41;99187.00;;;17.06;79.87
29215;BME280;16252;49.816;7.964;2022-10-15T03:22:07;99187.84;;;17.06;79.78
29215;BME280;16252;49.816;7.964;2022-10-15T03:24:32;99184.84;;;17.01;79.81
29215;BME280;16252;49.816;7.964;2022-10-15T03:26:57;99184.72;;;16.95;79.88
29215;BME280;16252;49.816;7.964;2022-10-15T03:29:23;99198.66;;;17.06;80.04
29215;BME280;16252;49.816;7.964;2022-10-15T03:31:48;99208.91;;;17.19;79.77
29215;BME280;16252;49.816;7.964;2022-10-15T03:34:14;99126.06;;;16.72;79.60
29215;BME280;16252;49.816;7.964;2022-10-15T03:36:39;99202.16;;;17.15;79.60
29215;BME280;16252;49.816;7.964;2022-10-15T03:39:04;99211.63;;;17.19;80.14
29215;BME280;16252;49.816;7.964;2022-10-15T03:41:30;99222.44;;;17.19;80.13
29215;BME280;16252;49.816;7.964;2022-10-15T03:44:00;99221.56;;;17.19;80.00
29215;BME280;16252;49.816;7.964;2022-10-15T03:46:25;99226.50;;;17.15;79.96
29215;BME280;16252;49.816;7.964;2022-10-15T03:48:51;99210.34;;;17.07;79.90
29215;BME280;16252;49.816;7.964;2022-10-15T03:51:16;99198.19;;;17.03;80.11
29215;BME280;16252;49.816;7.964;2022-10-15T03:53:41;99219.38;;;17.14;80.12
29215;BME280;16252;49.816;7.964;2022-10-15T03:56:07;99217.03;;;17.11;80.07
29215;BME280;16252;49.816;7.964;2022-10-15T03:58:32;99215.84;;;17.14;80.33
29215;BME280;16252;49.816;7.964;2022-10-15T04:00:57;99198.34;;;17.01;80.35
29215;BME280;16252;49.816;7.964;2022-10-15T04:03:23;99227.16;;;17.17;80.10
29215;BME280;16252;49.816;7.964;2022-10-15T04:05:52;99216.56;;;17.07;80.02
29215;BME280;16252;49.816;7.964;2022-10-15T04:08:17;99204.63;;;17.02;80.07
29215;BME280;16252;49.816;7.964;2022-10-15T04:10:43;99229.66;;;17.19;79.73
29215;BME280;16252;49.816;7.964;2022-10-15T04:13:08;99242.19;;;17.20;79.87
29215;BME280;16252;49.816;7.964;2022-10-15T04:15:34;99203.59;;;17.03;79.98
29215;BME280;16252;49.816;7.964;2022-10-15T04:17:59;99203.06;;;17.07;79.87
29215;BME280;16252;49.816;7.964;2022-10-15T04:20:24;99215.75;;;17.07;79.96
29215;BME280;16252;49.816;7.964;2022-10-15T04:22:50;99222.66;;;17.09;79.89
29215;BME280;16252;49.816;7.964;2022-10-15T04:25:15;99238.31;;;17.14;79.97
29215;BME280;16252;49.816;7.964;2022-10-15T04:27:41;99250.28;;;17.20;79.83
29215;BME280;16252;49.816;7.964;2022-10-15T04:30:07;99238.66;;;17.11;79.69
29215;BME280;16252;49.816;7.964;2022-10-15T04:32:33;99224.84;;;17.06;79.91
29215;BME280;16252;49.816;7.964;2022-10-15T04:34:58;99221.66;;;17.02;79.76
29215;BME280;16252;49.816;7.964;2022-10-15T04:37:23;99247.28;;;17.15;79.65
29215;BME280;16252;49.816;7.964;2022-10-15T04:39:49;99167.63;;;16.63;79.85
29215;BME280;16252;49.816;7.964;2022-10-15T04:42:14;99235.66;;;17.06;79.77
29215;BME280;16252;49.816;7.964;2022-10-15T04:44:39;99239.19;;;17.06;80.00
29215;BME280;16252;49.816;7.964;2022-10-15T04:47:04;99224.91;;;16.98;80.13
29215;BME280;16252;49.816;7.964;2022-10-15T04:49:30;99168.50;;;16.55;79.91
29215;BME280;16252;49.816;7.964;2022-10-15T04:51:55;99236.03;;;17.03;80.04
29215;BME280;16252;49.816;7.964;2022-10-15T04:54:20;99239.44;;;16.97;80.06
29215;BME280;16252;49.816;7.964;2022-10-15T04:56:46;99222.41;;;16.88;80.23
29215;BME280;16252;49.816;7.964;2022-10-15T04:59:11;99214.66;;;16.85;80.12
29215;BME280;16252;49.816;7.964;2022-10-15T05:01:36;99194.94;;;16.68;79.88
29215;BME280;16252;49.816;7.964;2022-10-15T05:04:02;99240.06;;;16.99;80.14
29215;BME280;16252;49.816;7.964;2022-10-15T05:06:27;99195.97;;;16.67;80.08
29215;BME280;16252;49.816;7.964;2022-10-15T05:08:52;99216.34;;;16.86;80.21
29215;BME280;16252;49.816;7.964;2022-10-15T05:11:20;99237.22;;;17.00;80.23
29215;BME280;16252;49.816;7.964;2022-10-15T05:13:46;99226.97;;;16.87;80.07
29215;BME280;16252;49.816;7.964;2022-10-15T05:16:14;99234.38;;;16.94;80.27
29215;BME280;16252;49.816;7.964;2022-10-15T05:18:40;99252.94;;;16.97;80.19
29215;BME280;16252;49.816;7.964;2022-10-15T05:21:06;99261.94;;;16.89;80.12
29215;BME280;16252;49.816;7.964;2022-10-15T05:23:32;99254.88;;;16.80;79.93
29215;BME280;16252;49.816;7.964;2022-10-15T05:26:02;99275.03;;;17.00;80.53
29215;BME280;16252;49.816;7.964;2022-10-15T05:28:28;99277.94;;;16.90;80.37
29215;BME280;16252;49.816;7.964;2022-10-15T05:30:53;99235.66;;;16.66;80.15
29215;BME280;16252;49.816;7.964;2022-10-15T05:33:19;99271.75;;;16.82;80.09
29215;BME280;16252;49.816;7.964;2022-10-15T05:35:44;99277.50;;;16.79;80.46
29215;BME280;16252;49.816;7.964;2022-10-15T05:38:10;99297.22;;;16.87;80.24
29215;BME280;16252;49.816;7.964;2022-10-15T05:40:35;99287.28;;;16.72;80.26
29215;BME280;16252;49.816;7.964;2022-10-15T05:43:00;99286.78;;;16.76;80.38
29215;BME280;16252;49.816;7.964;2022-10-15T05:45:26;99247.34;;;16.51;80.46
29215;BME280;16252;49.816;7.964;2022-10-15T05:47:54;99314.22;;;16.96;80.70
29215;BME280;16252;49.816;7.964;2022-10-15T05:50:21;99275.31;;;16.74;80.30
29215;BME280;16252;49.816;7.964;2022-10-15T05:52:47;99243.97;;;16.57;80.50
29215;BME280;16252;49.816;7.964;2022-10-15T05:55:12;99291.81;;;16.87;80.69
29215;BME280;16252;49.816;7.964;2022-10-15T05:57:37;99300.25;;;16.93;80.45
29215;BME280;16252;49.816;7.964;2022-10-15T06:00:04;99269.06;;;16.74;80.62
29215;BME280;16252;49.816;7.964;2022-10-15T06:02:30;99293.84;;;16.85;80.56
29215;BME280;16252;49.816;7.964;2022-10-15T06:04:55;99295.88;;;16.92;80.14
29215;BME280;16252;49.816;7.964;2022-10-15T06:07:20;99292.19;;;16.84;80.66
29215;BME280;16252;49.816;7.964;2022-10-15T06:09:45;99297.06;;;16.89;80.52
29215;BME280;16252;49.816;7.964;2022-10-15T06:12:11;99303.63;;;16.95;80.58
29215;BME280;16252;49.816;7.964;2022-10-15T06:14:36;99250.19;;;16.57;80.48
29215;BME280;16252;49.816;7.964;2022-10-15T06:17:01;99258.25;;;16.65;80.45
29215;BME280;16252;49.816;7.964;2022-10-15T06:19:27;99280.69;;;16.82;80.60
29215;BME280;16252;49.816;7.964;2022-10-15T06:21:52;99287.13;;;16.81;80.68
29215;BME280;16252;49.816;7.964;2022-10-15T06:24:17;99291.81;;;16.87;80.74
29215;BME280;16252;49.816;7.964;2022-10-15T06:26:42;99304.44;;;16.95;80.81
29215;BME280;16252;49.816;7.964;2022-10-15T06:29:11;99274.09;;;16.85;80.99
29215;BME280;16252;49.816;7.964;2022-10-15T06:31:36;99262.47;;;16.68;80.84
29215;BME280;16252;49.816;7.964;2022-10-15T06:34:02;99289.47;;;16.84;80.78
29215;BME280;16252;49.816;7.964;2022-10-15T06:36:27;99305.50;;;16.86;80.92
29215;BME280;16252;49.816;7.964;2022-10-15T06:38:52;99291.66;;;16.81;80.91
29215;BME280;16252;49.816;7.964;2022-10-15T06:41:17;99294.53;;;16.87;80.83
29215;BME280;16252;49.816;7.964;2022-10-15T06:43:43;99289.78;;;16.89;80.86
29215;BME280;16252;49.816;7.964;2022-10-15T06:46:10;99317.94;;;17.03;81.18
29215;BME280;16252;49.816;7.964;2022-10-15T06:48:35;99327.41;;;16.99;81.02
29215;BME280;16252;49.816;7.964;2022-10-15T06:51:02;99336.31;;;17.08;81.05
29215;BME280;16252;49.816;7.964;2022-10-15T06:53:28;99351.69;;;17.07;80.89
29215;BME280;16252;49.816;7.964;2022-10-15T06:56:00;99342.91;;;17.05;81.13
29215;BME280;16252;49.816;7.964;2022-10-15T06:58:26;99315.81;;;16.82;81.14
29215;BME280;16252;49.816;7.964;2022-10-15T07:00:52;99342.97;;;16.97;81.11
29215;BME280;16252;49.816;7.964;2022-10-15T07:03:17;99336.84;;;17.03;81.46
29215;BME280;16252;49.816;7.964;2022-10-15T07:05:43;99352.69;;;17.15;81.38
29215;BME280;16252;49.816;7.964;2022-10-15T07:08:08;99317.13;;;16.95;81.21
29215;BME280;16252;49.816;7.964;2022-10-15T07:10:33;99334.28;;;17.10;81.46
29215;BME280;16252;49.816;7.964;2022-10-15T07:12:59;99349.47;;;17.19;81.39
29215;BME280;16252;49.816;7.964;2022-10-15T07:15:25;99363.78;;;17.28;81.67
29215;BME280;16252;49.816;7.964;2022-10-15T07:17:52;99343.03;;;17.20;81.64
29215;BME280;16252;49.816;7.964;2022-10-15T07:20:21;99344.22;;;17.18;81.67
29215;BME280;16252;49.816;7.964;2022-10-15T07:22:46;99325.16;;;17.11;81.37
29215;BME280;16252;49.816;7.964;2022-10-15T07:25:13;99348.75;;;17.25;81.40
29215;BME280;16252;49.816;7.964;2022-10-15T07:27:38;99338.97;;;17.24;81.55
29215;BME280;16252;49.816;7.964;2022-10-15T07:30:05;99381.94;;;17.50;81.53
29215;BME280;16252;49.816;7.964;2022-10-15T07:32:30;99364.56;;;17.45;81.50
29215;BME280;16252;49.816;7.964;2022-10-15T07:34:56;99364.88;;;17.50;81.73
29215;BME280;16252;49.816;7.964;2022-10-15T07:37:21;99372.94;;;17.58;81.63
29215;BME280;16252;49.816;7.964;2022-10-15T07:39:46;99369.03;;;17.61;81.64
29215;BME280;16252;49.816;7.964;2022-10-15T07:42:12;99368.13;;;17.68;81.73
29215;BME280;16252;49.816;7.964;2022-10-15T07:44:37;99357.69;;;17.65;81.84
29215;BME280;16252;49.816;7.964;2022-10-15T07:47:02;99368.06;;;17.76;81.95
29215;BME280;16252;49.816;7.964;2022-10-15T07:49:27;99363.19;;;17.80;81.71
29215;BME280;16252;49.816;7.964;2022-10-15T07:51:53;99370.22;;;17.89;81.65
29215;BME280;16252;49.816;7.964;2022-10-15T07:54:18;99383.16;;;18.02;81.32
29215;BME280;16252;49.816;7.964;2022-10-15T07:56:43;99389.53;;;18.09;81.37
29215;BME280;16252;49.816;7.964;2022-10-15T07:59:09;99394.59;;;18.12;81.25
29215;BME280;16252;49.816;7.964;2022-10-15T08:01:34;99387.78;;;18.16;80.99
29215;BME280;16252;49.816;7.964;2022-10-15T08:03:59;99363.84;;;18.05;80.86
29215;BME280;16252;49.816;7.964;2022-10-15T08:06:24;99377.13;;;18.15;80.87
29215;BME280;16252;49.816;7.964;2022-10-15T08:08:50;99384.34;;;18.23;80.86
29215;BME280;16252;49.816;7.964;2022-10-15T08:11:15;99361.25;;;18.12;80.66
29215;BME280;16252;49.816;7.964;2022-10-15T08:13:41;99360.91;;;18.15;80.40
29215;BME280;16252;49.816;7.964;2022-10-15T08:16:08;99392.81;;;18.42;80.60
29215;BME280;16252;49.816;7.964;2022-10-15T08:18:34;99396.38;;;18.43;80.56
29215;BME280;16252;49.816;7.964;2022-10-15T08:21:00;99396.84;;;18.47;80.15
29215;BME280;16252;49.816;7.964;2022-10-15T08:23:26;99406.13;;;18.52;80.03
29215;BME280;16252;49.816;7.964;2022-10-15T08:25:51;99401.16;;;18.56;79.94
29215;BME280;16252;49.816;7.964;2022-10-15T08:28:17;99388.66;;;18.55;80.10
29215;BME280;16252;49.816;7.964;2022-10-15T08:30:42;99373.97;;;18.49;80.15
29215;BME280;16252;49.816;7.964;2022-10-15T08:33:07;99382.84;;;18.58;79.73
29215;BME280;16252;49.816;7.964;2022-10-15T08:35:32;99388.94;;;18.60;79.98
29215;BME280;16252;49.816;7.964;2022-10-15T08:38:03;99372.41;;;18.55;79.63
29215;BME280;16252;49.816;7.964;2022-10-15T08:40:29;99395.31;;;18.67;79.82
29215;BME280;16252;49.816;7.964;2022-10-15T08:42:55;99398.47;;;18.71;80.23
29215;BME280;16252;49.816;7.964;2022-10-15T08:45:30;99385.25;;;18.76;80.02
29215;BME280;16252;49.816;7.964;2022-10-15T08:53:14;99374.44;;;18.91;80.12
29215;BME280;16252;49.816;7.964;2022-10-15T08:55:42;99414.00;;;19.30;79.65
29215;BME280;16252;49.816;7.964;2022-10-15T08:58:14;99414.34;;;19.41;79.61
29215;BME280;16252;49.816;7.964;2022-10-15T09:00:57;99418.44;;;19.52;79.94
29215;BME280;16252;49.816;7.964;2022-10-15T09:03:32;99414.81;;;19.60;79.58
29215;BME280;16252;49.816;7.964;2022-10-15T09:06:34;99401.44;;;19.73;79.22
29215;BME280;16252;49.816;7.964;2022-10-15T09:09:06;99403.44;;;19.86;78.36
29215;BME280;16252;49.816;7.964;2022-10-15T09:11:55;99418.09;;;20.06;78.28
29215;BME280;16252;49.816;7.964;2022-10-15T09:14:32;99388.09;;;19.93;77.56
29215;BME280;16252;49.816;7.964;2022-10-15T09:17:02;99397.50;;;19.97;77.20
29215;BME280;16252;49.816;7.964;2022-10-15T09:19:30;99383.66;;;19.92;76.92
29215;BME280;16252;49.816;7.964;2022-10-15T09:21:56;99388.91;;;19.94;77.47
29215;BME280;16252;49.816;7.964;2022-10-15T09:24:27;99412.84;;;20.05;76.58
29215;BME280;16252;49.816;7.964;2022-10-15T09:27:08;99397.31;;;19.99;76.49
29215;BME280;16252;49.816;7.964;2022-10-15T09:32:38;99401.06;;;19.98;76.41
29215;BME280;16252;49.816;7.964;2022-10-15T09:43:30;99411.34;;;20.02;77.60
29215;BME280;16252;49.816;7.964;2022-10-15T09:46:03;99403.16;;;19.96;77.88
29215;BME280;16252;49.816;7.964;2022-10-15T09:48:38;99390.50;;;20.03;77.77
29215;BME280;16252;49.816;7.964;2022-10-15T09:54:22;99415.75;;;20.25;77.86
29215;BME280;16252;49.816;7.964;2022-10-15T09:56:55;99417.31;;;20.34;78.04
29215;BME280;16252;49.816;7.964;2022-10-15T09:59:22;99408.34;;;20.33;77.48
29215;BME280;16252;49.816;7.964;2022-10-15T10:02:00;99402.28;;;20.38;77.02
29215;BME280;16252;49.816;7.964;2022-10-15T10:04:31;99395.63;;;20.41;76.92
29215;BME280;16252;49.816;7.964;2022-10-15T10:07:03;99407.66;;;20.53;77.10
29215;BME280;16252;49.816;7.964;2022-10-15T10:09:48;99417.00;;;20.65;77.38
29215;BME280;16252;49.816;7.964;2022-10-15T10:12:18;99386.13;;;20.51;77.52
29215;BME280;16252;49.816;7.964;2022-10-15T10:14:58;99411.03;;;20.76;77.39
29215;BME280;16252;49.816;7.964;2022-10-15T10:17:26;99379.53;;;20.61;76.93
29215;BME280;16252;49.816;7.964;2022-10-15T10:20:15;99421.78;;;20.91;76.04
29215;BME280;16252;49.816;7.964;2022-10-15T10:22:49;99412.91;;;21.04;77.13
29215;BME280;16252;49.816;7.964;2022-10-15T10:28:11;99414.41;;;21.96;82.11
29215;BME280;16252;49.816;7.964;2022-10-15T10:30:46;99421.00;;;22.75;81.50
29215;BME280;16252;49.816;7.964;2022-10-15T10:33:14;99407.66;;;23.52;79.38
29215;BME280;16252;49.816;7.964;2022-10-15T10:35:47;99412.66;;;24.13;76.88
29215;BME280;16252;49.816;7.964;2022-10-15T10:38:22;99403.53;;;24.58;75.40
29215;BME280;16252;49.816;7.964;2022-10-15T10:40:50;99402.06;;;24.80;71.36
29215;BME280;16252;49.816;7.964;2022-10-15T10:48:28;99405.25;;;25.02;68.51
29215;BME280;16252;49.816;7.964;2022-10-15T10:51:12;99409.16;;;24.88;67.71
29215;BME280;16252;49.816;7.964;2022-10-15T10:53:45;99355.03;;;24.47;67.90
29215;BME280;16252;49.816;7.964;2022-10-15T10:56:12;99378.03;;;24.32;67.23
29215;BME280;16252;49.816;7.964;2022-10-15T10:58:39;99395.34;;;24.26;67.89
29215;BME280;16252;49.816;7.964;2022-10-15T11:01:05;99389.00;;;24.00;68.79
29215;BME280;16252;49.816;7.964;2022-10-15T11:03:39;99388.56;;;23.97;69.06
29215;BME280;16252;49.816;7.964;2022-10-15T11:14:29;99379.13;;;23.48;68.78
29215;BME280;16252;49.816;7.964;2022-10-15T11:17:07;99375.19;;;23.37;69.38
29215;BME280;16252;49.816;7.964;2022-10-15T11:19:54;99358.19;;;23.28;68.83
29215;BME280;16252;49.816;7.964;2022-10-15T11:25:22;99358.69;;;23.05;69.29
29215;BME280;16252;49.816;7.964;2022-10-15T11:28:10;99374.44;;;23.03;68.95
29215;BME280;16252;49.816;7.964;2022-10-15T11:38:52;99359.16;;;22.56;69.12
29215;BME280;16252;49.816;7.964;2022-10-15T11:44:21;99347.19;;;22.30;68.88
29215;BME280;16252;49.816;7.964;2022-10-15T11:52:40;99369.44;;;22.40;69.90
29215;BME280;16252;49.816;7.964;2022-10-15T11:55:38;99374.47;;;22.43;69.73
29215;BME280;16252;49.816;7.964;2022-10-15T11:58:11;99355.59;;;22.28;69.04
29215;BME280;16252;49.816;7.964;2022-10-15T12:00:43;99378.03;;;22.37;69.94
29215;BME280;16252;49.816;7.964;2022-10-15T12:03:20;99375.50;;;22.42;69.36
29215;BME280;16252;49.816;7.964;2022-10-15T12:05:53;99342.19;;;22.27;70.03
29215;BME280;16252;49.816;7.964;2022-10-15T12:08:20;99344.06;;;22.26;69.62
29215;BME280;16252;49.816;7.964;2022-10-15T12:11:15;99335.88;;;22.33;69.73
29215;BME280;16252;49.816;7.964;2022-10-15T12:14:34;99358.53;;;22.40;69.94
29215;BME280;16252;49.816;7.964;2022-10-15T12:20:21;99349.06;;;22.23;70.08
29215;BME280;16252;49.816;7.964;2022-10-15T12:22:38;99351.81;;;22.29;69.80
29215;BME280;16252;49.816;7.964;2022-10-15T12:25:05;99343.38;;;22.18;69.94
29215;BME280;16252;49.816;7.964;2022-10-15T12:27:33;99305.44;;;21.90;69.72
29215;BME280;16252;49.816;7.964;2022-10-15T12:32:29;99343.59;;;22.10;70.52
29215;BME280;16252;49.816;7.964;2022-10-15T12:35:03;99335.00;;;22.06;69.91
29215;BME280;16252;49.816;7.964;2022-10-15T12:37:31;99342.78;;;22.16;69.52
29215;BME280;16252;49.816;7.964;2022-10-15T12:40:22;99328.09;;;22.10;69.64
29215;BME280;16252;49.816;7.964;2022-10-15T12:43:00;99345.28;;;22.11;69.34
29215;BME280;16252;49.816;7.964;2022-10-15T12:45:40;99198.72;;;21.19;69.54
29215;BME280;16252;49.816;7.964;2022-10-15T12:50:41;99348.41;;;22.01;69.51
29215;BME280;16252;49.816;7.964;2022-10-15T12:58:44;99331.03;;;21.95;69.65
29215;BME280;16252;49.816;7.964;2022-10-15T13:08:52;99325.97;;;21.92;69.78
29215;BME280;16252;49.816;7.964;2022-10-15T13:11:37;99335.41;;;21.96;70.18
29215;BME280;16252;49.816;7.964;2022-10-15T13:14:13;99339.81;;;21.97;70.80
29215;BME280;16252;49.816;7.964;2022-10-15T13:16:46;99325.38;;;22.03;69.77
29215;BME280;16252;49.816;7.964;2022-10-15T13:19:38;99311.53;;;21.98;70.08
29215;BME280;16252;49.816;7.964;2022-10-15T13:22:17;99319.28;;;22.01;69.95
29215;BME280;16252;49.816;7.964;2022-10-15T13:24:43;99323.88;;;21.94;69.75
29215;BME280;16252;49.816;7.964;2022-10-15T13:27:33;99334.78;;;22.01;69.69
29215;BME280;16252;49.816;7.964;2022-10-15T13:30:04;99335.84;;;21.93;69.69
29215;BME280;16252;49.816;7.964;2022-10-15T13:32:34;99328.06;;;21.83;69.92
29215;BME280;16252;49.816;7.964;2022-10-15T13:35:02;99342.94;;;21.94;69.78
29215;BME280;16252;49.816;7.964;2022-10-15T13:37:30;99334.16;;;21.85;70.06
29215;BME280;16252;49.816;7.964;2022-10-15T13:39:57;99323.19;;;21.72;69.98
29215;BME280;16252;49.816;7.964;2022-10-15T13:42:23;99340.19;;;21.81;69.68
29215;BME280;16252;49.816;7.964;2022-10-15T13:45:17;99359.09;;;21.96;69.75
29215;BME280;16252;49.816;7.964;2022-10-15T13:47:47;99341.66;;;21.90;69.75
29215;BME280;16252;49.816;7.964;2022-10-15T13:50:23;99344.84;;;21.94;69.75
29215;BME280;16252;49.816;7.964;2022-10-15T13:55:38;99353.00;;;21.94;69.36
29215;BME280;16252;49.816;7.964;2022-10-15T13:58:25;99331.19;;;21.74;69.17
29215;BME280;16252;49.816;7.964;2022-10-15T14:01:09;99327.41;;;21.75;69.51
29215;BME280;16252;49.816;7.964;2022-10-15T14:03:37;99296.13;;;21.44;69.47
29215;BME280;16252;49.816;7.964;2022-10-15T14:06:20;99324.69;;;21.68;69.54
29215;BME280;16252;49.816;7.964;2022-10-15T14:08:49;99336.41;;;21.69;69.49
29215;BME280;16252;49.816;7.964;2022-10-15T14:11:15;99349.56;;;21.58;69.66
29215;BME280;16252;49.816;7.964;2022-10-15T14:13:53;99364.03;;;21.66;69.71
29215;BME280;16252;49.816;7.964;2022-10-15T14:16:31;99335.09;;;21.45;70.25
29215;BME280;16252;49.816;7.964;2022-10-15T14:19:07;99337.38;;;21.48;70.04
29215;BME280;16252;49.816;7.964;2022-10-15T14:21:34;99330.59;;;21.30;70.29
29215;BME280;16252;49.816;7.964;2022-10-15T14:24:16;99323.06;;;21.32;70.32
29215;BME280;16252;49.816;7.964;2022-10-15T14:26:43;99361.06;;;21.47;70.33
29215;BME280;16252;49.816;7.964;2022-10-15T14:29:28;99344.72;;;21.47;70.03
29215;BME280;16252;49.816;7.964;2022-10-15T14:31:59;99365.41;;;21.41;70.51
29215;BME280;16252;49.816;7.964;2022-10-15T14:34:29;99366.44;;;21.40;70.58
29215;BME280;16252;49.816;7.964;2022-10-15T14:36:55;99373.53;;;21.35;70.65
29215;BME280;16252;49.816;7.964;2022-10-15T14:39:32;99346.63;;;21.18;70.76
29215;BME280;16252;49.816;7.964;2022-10-15T14:42:03;99375.38;;;21.28;71.05
29215;BME280;16252;49.816;7.964;2022-10-15T14:44:44;99364.25;;;21.29;71.13
29215;BME280;16252;49.816;7.964;2022-10-15T14:49:44;99360.81;;;21.07;71.19